Aviation Digital Data Service (ADDS)

Output produced by METARs form (2214 UTC 24 March 2019)
found at http://www.aviationweather.gov/metar/data/
 
KYIP 241720Z 2418/2518 22008KT P6SM SCT070 OVC120 
     FM242000 24011KT P6SM BKN045 OVC100 
     FM250300 02012G20KT P6SM BKN028 OVC060 
     FM250700 01012KT P6SM SCT040 
     FM251400 35010KT P6SM SKC
       
KYKM 241720Z 2418/2518 VRB04KT P6SM -RA OVC045 
     TEMPO 2418/2422 4SM BR BKN030 
     FM250100 VRB04KT P6SM SCT030 BKN050 
     FM250600 27006KT P6SM SCT015 SCT180 
     FM251700 32008KT P6SM VCSH SCT020 BKN070
       
KYNG 241731Z 2418/2518 22009KT P6SM OVC120 
     FM250000 VRB03KT P6SM VCSH OVC060 
     FM250900 01008KT P6SM BKN030 OVC070 
     FM251100 02009KT P6SM SCT015 BKN090 
     TEMPO 2511/2514 BKN015 OVC090 
     FM251400 02009KT P6SM SCT045 BKN100